Time;durP1;ratioP1;P1;durP2;ratioP2;P2;SDS_P1;SDS_P2;PMS_P1;PMS_P2;Temp;Humidity;BMP_temperature;BMP_pressure;BME280_temperature;BME280_humidity;BME280_pressure;Samples;Min_cycle;Max_cycle;Signal;HPM_P1;HPM_P2
2023/04/19 00:00:29;;;;;;;;;;;;;;;;;;5075661;28;19931;-80
2023/04/19 00:02:59;;;;;;;;;;;;;;;;;;5067202;28;19924;-79
2023/04/19 00:05:26;;;;;;;;;;;;;;;;;;5080431;28;19947;-79
2023/04/19 00:07:53;;;;;;;;;;;;;;;;;;5070337;28;19931;-79
2023/04/19 00:10:23;;;;;;;;;;;;;;;;;;5051474;28;20290;-80
2023/04/19 00:12:54;;;;;;;;;;;;;;;;;;5065822;22;19929;-90
2023/04/19 00:15:33;;;;;;;;;;;;;;;;;;5046176;28;20417;-90
2023/04/19 00:18:02;;;;;;;;;;;;;;;;;;5062771;28;19931;-90
2023/04/19 00:20:29;;;;;;;;;;;;;;;;;;5060251;28;19929;-90
2023/04/19 00:22:57;;;;;;;;;;;;;;;;;;5035995;28;19925;-90
2023/04/19 00:25:24;;;;;;;;;;;;;;;;;;5069393;28;19931;-90
2023/04/19 00:27:51;;;;;;;;;;;;;;;;;;5052544;28;19935;-90
2023/04/19 00:30:18;;;;;;;;;;;;;;;;;;5065114;28;19929;-90
2023/04/19 00:32:46;;;;;;;;;;;;;;;;;;5047550;28;19932;-90
2023/04/19 00:35:14;;;;;;;;;;;;;;;;;;5048299;28;19929;-90
2023/04/19 00:37:41;;;;;;;;;;;;;;;;;;5033284;28;19940;-90
2023/04/19 00:40:09;;;;;;;;;;;;;;;;;;5052552;28;19925;-91
2023/04/19 00:42:37;;;;;;;;;;;;;;;;;;5030107;28;20398;-91
2023/04/19 00:45:05;;;;;;;;;;;;;;;;;;5061596;28;19924;-91
2023/04/19 00:47:32;;;;;;;;;;;;;;;;;;5049460;28;19929;-91
2023/04/19 00:49:59;;;;;;;;;;;;;;;;;;5047125;28;19936;-91
2023/04/19 00:52:28;;;;;;;;;;;;;;;;;;5026398;28;19948;-91
2023/04/19 00:54:57;;;;;;;;;;;;;;;;;;5047859;28;19924;-91
2023/04/19 00:57:24;;;;;;;;;;;;;;;;;;5043972;28;20393;-91
2023/04/19 00:59:51;;;;;;;;;;;;;;;;;;5050411;28;19928;-91
2023/04/19 01:02:20;;;;;;;;;;;;;;;;;;5071264;28;19931;-91
2023/04/19 01:04:49;;;;;;;;;;;;;;;;;;5033097;28;19925;-91
2023/04/19 01:07:17;;;;;;;;;;;;;;;;;;5068531;28;20286;-91
2023/04/19 01:09:45;;;;;;;;;;;;;;;;;;5034861;28;20404;-91
2023/04/19 01:12:12;;;;;;;;;;;;;;;;;;5051699;28;19925;-91
2023/04/19 01:14:43;;;;;;;;;;;;;;;;;;5036442;28;19925;-91
2023/04/19 01:17:12;;;;;;;;;;;;;;;;;;5070402;28;19928;-91
2023/04/19 01:19:39;;;;;;;;;;;;;;;;;;5043652;28;19932;-91
2023/04/19 01:22:07;;;;;;;;;;;;;;;;;;5049727;28;19929;-91
2023/04/19 01:24:35;;;;;;;;;;;;;;;;;;5061722;28;19991;-91
2023/04/19 01:27:02;;;;;;;;;;;;;;;;;;5052273;28;19931;-91
2023/04/19 01:29:29;;;;;;;;;;;;;;;;;;5051218;28;19924;-92
2023/04/19 01:31:57;;;;;;;;;;;;;;;;;;5063652;28;20318;-87
2023/04/19 01:34:26;;;;;;;;;;;;;;;;;;5046908;28;19932;-90
2023/04/19 01:36:53;;;;;;;;;;;;;;;;;;5055018;28;19931;-91
2023/04/19 01:39:20;;;;;;;;;;;;;;;;;;5036054;28;19936;-91
2023/04/19 01:41:49;;;;;;;;;;;;;;;;;;5058025;28;19932;-92
2023/04/19 01:44:16;;;;;;;;;;;;;;;;;;5073735;28;19935;-92
2023/04/19 01:46:44;;;;;;;;;;;;;;;;;;5057347;28;19932;-92
2023/04/19 01:49:13;;;;;;;;;;;;;;;;;;5060743;28;19924;-90
2023/04/19 01:51:43;;;;;;;;;;;;;;;;;;5076840;28;19932;-91
2023/04/19 01:54:10;;;;;;;;;;;;;;;;;;5062774;28;20472;-90
2023/04/19 01:56:37;;;;;;;;;;;;;;;;;;5037408;28;20393;-90
2023/04/19 01:59:05;;;;;;;;;;;;;;;;;;5049836;28;19931;-90
2023/04/19 02:01:32;;;;;;;;;;;;;;;;;;5032814;28;19925;-90
2023/04/19 02:03:59;;;;;;;;;;;;;;;;;;5051850;28;19935;-92
2023/04/19 02:06:27;;;;;;;;;;;;;;;;;;5052159;28;19925;-91
2023/04/19 02:08:54;;;;;;;;;;;;;;;;;;5056955;28;19924;-91
2023/04/19 02:11:21;;;;;;;;;;;;;;;;;;5035100;28;19924;-91
2023/04/19 02:13:48;;;;;;;;;;;;;;;;;;5050642;28;20286;-90
2023/04/19 02:16:17;;;;;;;;;;;;;;;;;;5053622;28;19935;-91
2023/04/19 02:18:45;;;;;;;;;;;;;;;;;;5048898;28;19925;-91
2023/04/19 02:21:12;;;;;;;;;;;;;;;;;;5069231;28;19928;-90
2023/04/19 02:23:40;;;;;;;;;;;;;;;;;;5073889;28;19924;-91
2023/04/19 02:26:07;;;;;;;;;;;;;;;;;;5053477;28;19932;-90
2023/04/19 02:28:35;;;;;;;;;;;;;;;;;;5055528;28;19924;-90
2023/04/19 02:31:04;;;;;;;;;;;;;;;;;;5054162;28;19928;-90
2023/04/19 02:33:32;;;;;;;;;;;;;;;;;;5073299;28;19924;-90
2023/04/19 02:36:00;;;;;;;;;;;;;;;;;;5051927;28;19924;-90
2023/04/19 02:38:27;;;;;;;;;;;;;;;;;;5066551;28;20416;-91
2023/04/19 02:40:54;;;;;;;;;;;;;;;;;;5038109;28;19936;-91
2023/04/19 02:43:22;;;;;;;;;;;;;;;;;;5053307;28;19932;-90
2023/04/19 02:45:49;;;;;;;;;;;;;;;;;;5054308;28;19932;-90
2023/04/19 02:48:16;;;;;;;;;;;;;;;;;;5059392;28;19947;-90
2023/04/19 02:50:45;;;;;;;;;;;;;;;;;;5051740;28;19939;-90
2023/04/19 02:53:12;;;;;;;;;;;;;;;;;;5048818;28;19928;-90
2023/04/19 02:55:39;;;;;;;;;;;;;;;;;;5051597;28;19928;-91
2023/04/19 02:58:13;;;;;;;;;;;;;;;;;;5052343;28;19924;-90
2023/04/19 03:00:49;;;;;;;;;;;;;;;;;;5051145;28;20390;-90
2023/04/19 03:03:19;;;;;;;;;;;;;;;;;;5065521;28;19925;-91
2023/04/19 03:05:48;;;;;;;;;;;;;;;;;;5036386;28;19925;-90
2023/04/19 03:08:16;;;;;;;;;;;;;;;;;;5063781;28;19925;-91
2023/04/19 03:10:45;;;;;;;;;;;;;;;;;;5049991;28;19925;-91
2023/04/19 03:13:12;;;;;;;;;;;;;;;;;;5051506;28;19928;-92
2023/04/19 03:15:40;;;;;;;;;;;;;;;;;;5038211;28;19933;-92
2023/04/19 03:18:08;;;;;;;;;;;;;;;;;;5051316;28;19932;-91
2023/04/19 03:20:37;;;;;;;;;;;;;;;;;;5034335;28;19931;-91
2023/04/19 03:23:06;;;;;;;;;;;;;;;;;;5052507;28;19932;-91
2023/04/19 03:25:37;;;;;;;;;;;;;;;;;;5061577;28;19932;-92
2023/04/19 03:28:17;;;;;;;;;;;;;;;;;;5050792;28;20401;-91
2023/04/19 03:31:05;;;;;;;;;;;;;;;;;;5061160;28;19931;-92
2023/04/19 03:33:32;;;;;;;;;;;;;;;;;;5050576;28;20420;-89
2023/04/19 03:35:59;;;;;;;;;;;;;;;;;;5063436;28;19929;-90
2023/04/19 03:38:28;;;;;;;;;;;;;;;;;;5067585;28;19931;-89
2023/04/19 03:43:58;;;;;;;;;;;;;;;;;;5045997;28;20665;-91
2023/04/19 03:50:18;;;;;;;;;;;;;;;;;;5032250;28;20313;-90
2023/04/19 03:52:53;;;;;;;;;;;;;;;;;;5042243;28;20393;-91
2023/04/19 03:55:26;;;;;;;;;;;;;;;;;;5063135;28;19924;-91
2023/04/19 03:57:53;;;;;;;;;;;;;;;;;;5050960;28;19924;-90
2023/04/19 04:00:41;;;;;;;;;;;;;;;;;;5048777;28;19925;-91
2023/04/19 04:03:14;;;;;;;;;;;;;;;;;;5049965;28;19931;-90
2023/04/19 04:05:42;;;;;;;;;;;;;;;;;;5049924;28;19932;-92
2023/04/19 04:08:21;;;;;;;;;;;;;;;;;;5052507;28;20386;-91
2023/04/19 04:11:24;;;;;;;;;;;;;;;;;;;;;
2023/04/19 04:14:26;;;;;;;;;;;;;;;;;;5026091;28;19924;-91
2023/04/19 04:16:56;;;;;;;;;;;;;;;;;;5050209;28;20289;-90
2023/04/19 04:19:29;;;;;;;;;;;;;;;;;;5069256;28;19936;-90
2023/04/19 04:22:01;;;;;;;;;;;;;;;;;;5043643;28;19939;-92
2023/04/19 04:25:00;;;;;;;;;;;;;;;;;;5049522;28;20009;-92
2023/04/19 04:32:04;;;;;;;;;;;;;;;;;;;;;
2023/04/19 04:34:55;;;;;;;;;;;;;;;;;;5012703;28;19924;-92
2023/04/19 04:37:40;;;;;;;;;;;;;;;;;;5044466;28;19925;-91
2023/04/19 04:40:07;;;;;;;;;;;;;;;;;;5050280;28;19931;-91
2023/04/19 04:42:36;;;;;;;;;;;;;;;;;;5055274;28;19924;-91
2023/04/19 04:45:09;;;;;;;;;;;;;;;;;;5064195;28;20004;-91
2023/04/19 04:47:42;;;;;;;;;;;;;;;;;;5030698;28;20297;-92
2023/04/19 04:50:11;;;;;;;;;;;;;;;;;;5043245;28;19925;-91
2023/04/19 04:52:43;;;;;;;;;;;;;;;;;;5049831;28;19932;-92
2023/04/19 04:55:16;;;;;;;;;;;;;;;;;;5051706;28;19924;-91
2023/04/19 04:57:44;;;;;;;;;;;;;;;;;;5051382;28;19924;-91
2023/04/19 05:00:29;;;;;;;;;;;;;;;;;;5055323;28;20278;-90
2023/04/19 05:03:03;;;;;;;;;;;;;;;;;;5053112;28;19925;-91
2023/04/19 05:05:35;;;;;;;;;;;;;;;;;;5049626;28;19924;-91
2023/04/19 05:08:03;;;;;;;;;;;;;;;;;;5051771;28;19932;-90
2023/04/19 05:10:31;;;;;;;;;;;;;;;;;;5044134;28;19931;-90
2023/04/19 05:13:01;;;;;;;;;;;;;;;;;;5024131;28;19924;-91
2023/04/19 05:15:31;;;;;;;;;;;;;;;;;;5052969;28;19929;-91
2023/04/19 05:17:58;;;;;;;;;;;;;;;;;;5035752;28;20423;-90
2023/04/19 05:20:27;;;;;;;;;;;;;;;;;;5034783;28;19932;-90
2023/04/19 05:23:03;;;;;;;;;;;;;;;;;;5035066;28;20305;-90
2023/04/19 05:25:33;;;;;;;;;;;;;;;;;;5032570;28;19933;-90
2023/04/19 05:28:02;;;;;;;;;;;;;;;;;;5040717;28;19924;-90
2023/04/19 05:30:34;;;;;;;;;;;;;;;;;;5074001;28;19936;-90
2023/04/19 05:33:02;;;;;;;;;;;;;;;;;;5051387;28;19925;-91
2023/04/19 05:35:29;;;;;;;;;;;;;;;;;;5073131;28;20408;-91
2023/04/19 05:37:56;;;;;;;;;;;;;;;;;;5053625;28;20282;-90
2023/04/19 05:40:26;;;;;;;;;;;;;;;;;;5044906;28;19925;-90
2023/04/19 05:42:53;;;;;;;;;;;;;;;;;;5036058;28;19924;-90
2023/04/19 06:12:25;;;;;;;;;;;;;;;;;;5659032;22;19925;-80
2023/04/19 06:14:53;;;;;;;;;;;;;;;;;;5048397;28;19932;-80
2023/04/19 06:17:23;;;;;;;;;;;;;;;;;;5037024;28;19925;-80
2023/04/19 06:19:53;;;;;;;;;;;;;;;;;;4999117;28;19929;-80
2023/04/19 06:22:20;;;;;;;;;;;;;;;;;;5024584;28;20305;-80
2023/04/19 06:24:49;;;;;;;;;;;;;;;;;;5013167;28;19926;-80
2023/04/19 06:27:16;;;;;;;;;;;;;;;;;;5034366;28;19932;-80
2023/04/19 06:29:45;;;;;;;;;;;;;;;;;;5009793;28;19925;-81
2023/04/19 06:32:12;;;;;;;;;;;;;;;;;;5041963;28;20383;-81
2023/04/19 06:34:39;;;;;;;;;;;;;;;;;;5020075;28;19932;-81
2023/04/19 06:37:06;;;;;;;;;;;;;;;;;;5028333;28;19925;-81
2023/04/19 06:39:35;;;;;;;;;;;;;;;;;;5039837;28;19924;-81
2023/04/19 06:42:02;;;;;;;;;;;;;;;;;;5017803;28;19925;-81
2023/04/19 06:44:32;;;;;;;;;;;;;;;;;;5010707;28;19925;-81
2023/04/19 06:47:00;;;;;;;;;;;;;;;;;;5042516;28;19933;-80
2023/04/19 06:49:32;;;;;;;;;;;;;;;;;;5033929;28;19948;-81
2023/04/19 06:52:01;;;;;;;;;;;;;;;;;;5017978;28;19925;-81
2023/04/19 06:54:28;;;;;;;;;;;;;;;;;;5022822;28;19936;-81
2023/04/19 06:56:56;;;;;;;;;;;;;;;;;;5016317;28;19932;-81
2023/04/19 06:59:27;;;;;;;;;;;;;;;;;;5025501;28;19925;-81
2023/04/19 07:01:55;;;;;;;;;;;;;;;;;;5036642;28;19931;-81
2023/04/19 07:04:24;;;;;;;;;;;;;;;;;;5017487;28;19932;-81
2023/04/19 07:06:51;;;;;;;;;;;;;;;;;;5016290;28;19932;-81
2023/04/19 07:09:18;;;;;;;;;;;;;;;;;;5010851;28;19926;-81
2023/04/19 07:11:46;;;;;;;;;;;;;;;;;;5015849;28;20382;-81
2023/04/19 07:14:15;;;;;;;;;;;;;;;;;;5010224;28;19983;-81
2023/04/19 07:16:42;;;;;;;;;;;;;;;;;;5016114;28;19925;-81
2023/04/19 07:19:09;;;;;;;;;;;;;;;;;;5032487;28;19925;-81
2023/04/19 07:21:38;;;;;;;;;;;;;;;;;;4997741;28;20402;-81
2023/04/19 07:24:06;;;;;;;;;;;;;;;;;;5000640;28;19933;-81
2023/04/19 07:26:33;;;;;;;;;;;;;;;;;;5015872;28;19925;-81
2023/04/19 07:29:02;;;;;;;;;;;;;;;;;;4998912;28;19954;-80
2023/04/19 07:31:29;;;;;;;;;;;;;;;;;;4997220;28;19929;-81
2023/04/19 07:33:56;;;;;;;;;;;;;;;;;;4999438;28;19925;-81
2023/04/19 07:36:26;;;;;;;;;;;;;;;;;;5016397;28;19932;-80
2023/04/19 07:38:57;;;;;;;;;;;;;;;;;;5034918;28;19925;-80
2023/04/19 07:41:26;;;;;;;;;;;;;;;;;;4995083;28;19926;-79
2023/04/19 07:43:53;;;;;;;;;;;;;;;;;;4998777;28;20386;-81
2023/04/19 07:46:20;;;;;;;;;;;;;;;;;;5009646;28;20314;-81
2023/04/19 07:48:47;;;;;;;;;;;;;;;;;;5032998;28;19940;-81
2023/04/19 07:51:15;;;;;;;;;;;;;;;;;;5014999;28;20426;-81
2023/04/19 07:53:44;;;;;;;;;;;;;;;;;;5040146;28;19925;-81
2023/04/19 07:56:13;;;;;;;;;;;;;;;;;;5013272;28;19925;-81
2023/04/19 07:58:40;;;;;;;;;;;;;;;;;;5007282;28;20394;-81
2023/04/19 08:01:10;;;;;;;;;;;;;;;;;;4998610;28;19925;-80
2023/04/19 08:03:40;;;;;;;;;;;;;;;;;;5012370;28;19925;-81
2023/04/19 08:06:07;;;;;;;;;;;;;;;;;;5012370;28;19960;-81
2023/04/19 08:08:35;;;;;;;;;;;;;;;;;;5029973;28;19925;-80
2023/04/19 08:11:05;;;;;;;;;;;;;;;;;;5033696;28;19929;-81
2023/04/19 08:13:33;;;;;;;;;;;;;;;;;;5029336;28;19947;-80
2023/04/19 08:16:02;;;;;;;;;;;;;;;;;;4998181;28;20405;-81
2023/04/19 08:18:34;;;;;;;;;;;;;;;;;;5018430;28;19932;-80
2023/04/19 08:21:01;;;;;;;;;;;;;;;;;;5019316;28;19925;-80
2023/04/19 08:23:28;;;;;;;;;;;;;;;;;;5034669;28;20338;-80
2023/04/19 08:25:55;;;;;;;;;;;;;;;;;;5034588;28;19925;-80
2023/04/19 08:28:22;;;;;;;;;;;;;;;;;;5029445;28;19925;-81
2023/04/19 08:30:51;;;;;;;;;;;;;;;;;;5011606;28;19940;-80
2023/04/19 08:33:18;;;;;;;;;;;;;;;;;;5031715;28;19933;-81
2023/04/19 08:35:47;;;;;;;;;;;;;;;;;;5039821;28;19925;-81
2023/04/19 08:38:14;;;;;;;;;;;;;;;;;;5014014;28;19925;-80
2023/04/19 08:40:45;;;;;;;;;;;;;;;;;;5013623;28;19925;-80
2023/04/19 08:43:12;;;;;;;;;;;;;;;;;;4996227;28;19926;-81
2023/04/19 08:45:39;;;;;;;;;;;;;;;;;;5021927;28;19932;-80
2023/04/19 08:48:11;;;;;;;;;;;;;;;;;;5013300;28;19929;-80
2023/04/19 08:50:40;;;;;;;;;;;;;;;;;;5011092;28;19932;-80
2023/04/19 08:53:07;;;;;;;;;;;;;;;;;;5048650;28;19925;-80
2023/04/19 08:55:34;;;;;;;;;;;;;;;;;;5000894;28;20427;-81
2023/04/19 08:58:04;;;;;;;;;;;;;;;;;;4995034;28;19929;-81
2023/04/19 09:00:31;;;;;;;;;;;;;;;;;;5033112;28;19925;-81
2023/04/19 09:02:58;;;;;;;;;;;;;;;;;;5010978;28;19932;-81
2023/04/19 09:05:26;;;;;;;;;;;;;;;;;;5021263;28;20416;-81
2023/04/19 09:07:56;;;;;;;;;;;;;;;;;;5011440;28;20425;-81
2023/04/19 09:10:24;;;;;;;;;;;;;;;;;;5037008;28;20422;-81
2023/04/19 09:13:04;;;;;;;;;;;;;;;;;;5015229;28;19929;-81
2023/04/19 09:15:37;;;;;;;;;;;;;;;;;;5037122;28;19925;-81
2023/04/19 09:18:05;;;;;;;;;;;;;;;;;;5034478;28;20398;-80
2023/04/19 09:20:37;;;;;;;;;;;;;;;;;;4996291;28;20275;-80
2023/04/19 09:23:04;;;;;;;;;;;;;;;;;;5030506;28;19926;-81
2023/04/19 09:25:34;;;;;;;;;;;;;;;;;;5041572;28;19936;-80
2023/04/19 09:28:13;;;;;;;;;;;;;;;;;;5011195;28;19929;-80
2023/04/19 09:30:40;;;;;;;;;;;;;;;;;;5022739;28;19947;-80
2023/04/19 09:33:12;;;;;;;;;;;;;;;;;;5018023;28;20378;-80
2023/04/19 09:35:43;;;;;;;;;;;;;;;;;;5022558;28;19925;-80
2023/04/19 09:38:13;;;;;;;;;;;;;;;;;;5029020;28;19944;-80
2023/04/19 09:40:43;;;;;;;;;;;;;;;;;;5030020;28;19925;-80
2023/04/19 09:43:10;;;;;;;;;;;;;;;;;;5010805;28;20342;-80
2023/04/19 09:45:41;;;;;;;;;;;;;;;;;;5017249;28;19924;-80
2023/04/19 09:48:09;;;;;;;;;;;;;;;;;;5029248;28;19929;-80
2023/04/19 09:50:36;;;;;;;;;;;;;;;;;;5018553;28;19925;-80
2023/04/19 09:53:05;;;;;;;;;;;;;;;;;;5030361;28;19931;-80
2023/04/19 09:55:32;;;;;;;;;;;;;;;;;;5004806;28;19925;-80
2023/04/19 09:57:59;;;;;;;;;;;;;;;;;;4992960;28;19933;-80
2023/04/19 10:00:28;;;;;;;;;;;;;;;;;;5016520;28;19952;-80
2023/04/19 10:02:56;;;;;;;;;;;;;;;;;;5016473;28;19944;-80
2023/04/19 10:05:23;;;;;;;;;;;;;;;;;;5017294;28;19925;-80
2023/04/19 10:07:51;;;;;;;;;;;;;;;;;;5013790;28;19926;-80
2023/04/19 10:10:22;;;;;;;;;;;;;;;;;;4999607;28;20410;-80
2023/04/19 10:12:49;;;;;;;;;;;;;;;;;;5028529;28;19925;-80
2023/04/19 10:15:19;;;;;;;;;;;;;;;;;;5033110;28;19925;-80
2023/04/19 10:17:46;;;;;;;;;;;;;;;;;;5020088;28;19933;-80
2023/04/19 10:20:17;;;;;;;;;;;;;;;;;;5042438;28;19925;-80
2023/04/19 10:22:44;;;;;;;;;;;;;;;;;;5017443;28;19931;-80
2023/04/19 10:25:14;;;;;;;;;;;;;;;;;;5046550;28;19925;-79
2023/04/19 10:27:44;;;;;;;;;;;;;;;;;;5020141;28;19940;-79
2023/04/19 10:30:17;;;;;;;;;;;;;;;;;;5014471;28;19925;-79
2023/04/19 10:32:51;;;;;;;;;;;;;;;;;;4998308;28;19932;-79
2023/04/19 10:35:18;;;;;;;;;;;;;;;;;;4999068;28;19944;-80
2023/04/19 10:38:10;;;;;;;;;;;;;;;;;;5034384;28;20383;-80
2023/04/19 10:40:59;;;;;;;;;;;;;;;;;;5015744;28;19925;-80
2023/04/19 10:43:27;;;;;;;;;;;;;;;;;;5033834;28;19925;-80
2023/04/19 10:46:01;;;;;;;;;;;;;;;;;;5017249;28;19925;-80
2023/04/19 10:48:32;;;;;;;;;;;;;;;;;;5016888;28;20276;-80
2023/04/19 10:50:59;;;;;;;;;;;;;;;;;;5015953;28;19929;-80
2023/04/19 10:53:45;;;;;;;;;;;;;;;;;;5015704;28;19932;-80
2023/04/19 10:56:15;;;;;;;;;;;;;;;;;;5016923;28;19925;-80
2023/04/19 10:59:00;;;;;;;;;;;;;;;;;;4999533;28;20309;-80
2023/04/19 11:01:37;;;;;;;;;;;;;;;;;;5012759;28;20301;-80
2023/04/19 11:04:08;;;;;;;;;;;;;;;;;;5024168;28;20317;-80
2023/04/19 11:06:38;;;;;;;;;;;;;;;;;;5021752;28;20564;-80
2023/04/19 11:09:09;;;;;;;;;;;;;;;;;;5016498;28;19925;-80
2023/04/19 11:11:39;;;;;;;;;;;;;;;;;;5033236;28;19933;-79
2023/04/19 11:14:06;;;;;;;;;;;;;;;;;;5016471;28;19925;-80
2023/04/19 11:16:34;;;;;;;;;;;;;;;;;;4996510;28;19925;-80
2023/04/19 11:19:01;;;;;;;;;;;;;;;;;;5014087;28;20303;-79
2023/04/19 11:21:32;;;;;;;;;;;;;;;;;;5002081;28;20420;-80
2023/04/19 11:24:08;;;;;;;;;;;;;;;;;;5028150;28;19944;-79
2023/04/19 11:26:34;;;;;;;;;;;;;;;;;;5003289;28;20437;-79
2023/04/19 11:29:02;;;;;;;;;;;;;;;;;;5019060;28;19925;-80
2023/04/19 11:31:32;;;;;;;;;;;;;;;;;;5032871;28;19933;-79
2023/04/19 11:34:02;;;;;;;;;;;;;;;;;;5024359;28;20556;-80
2023/04/19 11:36:30;;;;;;;;;;;;;;;;;;5038093;28;19944;-80
2023/04/19 11:38:57;;;;;;;;;;;;;;;;;;5015429;28;19926;-79
2023/04/19 11:41:24;;;;;;;;;;;;;;;;;;5014548;28;19925;-80
2023/04/19 11:43:51;;;;;;;;;;;;;;;;;;4996759;28;19932;-79
2023/04/19 11:46:20;;;;;;;;;;;;;;;;;;5015676;28;19933;-79
2023/04/19 11:48:51;;;;;;;;;;;;;;;;;;5033419;28;20401;-80
2023/04/19 11:51:19;;;;;;;;;;;;;;;;;;5015071;28;19932;-80
2023/04/19 11:53:51;;;;;;;;;;;;;;;;;;5031749;28;19925;-80
2023/04/19 11:56:21;;;;;;;;;;;;;;;;;;5013847;28;19933;-80
2023/04/19 11:58:51;;;;;;;;;;;;;;;;;;5014705;28;19932;-80
2023/04/19 12:01:19;;;;;;;;;;;;;;;;;;4999059;28;19948;-80
2023/04/19 12:03:49;;;;;;;;;;;;;;;;;;5033555;28;19925;-80
2023/04/19 12:06:17;;;;;;;;;;;;;;;;;;4997886;28;19925;-80
2023/04/19 12:08:46;;;;;;;;;;;;;;;;;;5020971;28;20034;-80
2023/04/19 12:11:14;;;;;;;;;;;;;;;;;;5032892;28;19941;-80
2023/04/19 12:13:45;;;;;;;;;;;;;;;;;;5014989;28;19925;-80
2023/04/19 12:16:17;;;;;;;;;;;;;;;;;;4998186;28;19933;-80
2023/04/19 12:18:45;;;;;;;;;;;;;;;;;;5015486;28;19932;-80
2023/04/19 12:21:26;;;;;;;;;;;;;;;;;;5014931;28;20298;-80
2023/04/19 12:23:57;;;;;;;;;;;;;;;;;;5032791;28;19937;-80
2023/04/19 12:26:24;;;;;;;;;;;;;;;;;;5031101;28;19929;-80
2023/04/19 12:28:53;;;;;;;;;;;;;;;;;;5014050;28;19933;-79
2023/04/19 12:31:20;;;;;;;;;;;;;;;;;;5032089;28;19929;-80
2023/04/19 12:33:48;;;;;;;;;;;;;;;;;;5014122;28;19932;-80
2023/04/19 12:36:15;;;;;;;;;;;;;;;;;;5023910;28;19924;-80
2023/04/19 12:38:42;;;;;;;;;;;;;;;;;;5032308;28;19925;-79
2023/04/19 12:41:13;;;;;;;;;;;;;;;;;;5028465;28;19925;-80
2023/04/19 12:43:40;;;;;;;;;;;;;;;;;;5013132;28;19925;-80
2023/04/19 12:46:07;;;;;;;;;;;;;;;;;;5031555;28;19925;-80
2023/04/19 12:48:36;;;;;;;;;;;;;;;;;;5027259;28;19925;-80
2023/04/19 12:51:04;;;;;;;;;;;;;;;;;;5033241;28;19932;-80
2023/04/19 12:53:31;;;;;;;;;;;;;;;;;;5013858;28;20305;-80
2023/04/19 12:55:58;;;;;;;;;;;;;;;;;;5013768;28;19928;-80
2023/04/19 12:58:31;;;;;;;;;;;;;;;;;;5014493;28;19932;-80
2023/04/19 13:00:57;;;;;;;;;;;;;;;;;;5031686;28;19940;-80
2023/04/19 13:03:25;;;;;;;;;;;;;;;;;;5031390;28;19926;-80
2023/04/19 13:05:54;;;;;;;;;;;;;;;;;;5046698;28;19924;-80
2023/04/19 13:08:21;;;;;;;;;;;;;;;;;;5034383;28;19929;-80
2023/04/19 13:10:50;;;;;;;;;;;;;;;;;;5018520;28;20142;-80
2023/04/19 13:13:17;;;;;;;;;;;;;;;;;;4997119;28;19925;-80
2023/04/19 13:15:48;;;;;;;;;;;;;;;;;;5014279;28;20097;-80
2023/04/19 13:18:17;;;;;;;;;;;;;;;;;;5014326;28;19925;-80
2023/04/19 13:20:46;;;;;;;;;;;;;;;;;;5030851;28;19925;-80
2023/04/19 13:23:13;;;;;;;;;;;;;;;;;;4996899;28;20032;-80
2023/04/19 13:25:40;;;;;;;;;;;;;;;;;;5036311;28;19929;-80
2023/04/19 13:28:07;;;;;;;;;;;;;;;;;;5034183;28;19924;-80
2023/04/19 13:30:34;;;;;;;;;;;;;;;;;;5039575;28;19929;-80
2023/04/19 13:33:02;;;;;;;;;;;;;;;;;;5031945;28;19929;-80
2023/04/19 13:35:29;;;;;;;;;;;;;;;;;;5013579;28;19925;-80
2023/04/19 13:37:56;;;;;;;;;;;;;;;;;;5029264;28;19996;-80
2023/04/19 13:40:26;;;;;;;;;;;;;;;;;;5043463;28;20405;-80
2023/04/19 13:42:53;;;;;;;;;;;;;;;;;;5016071;28;19932;-80
2023/04/19 13:45:23;;;;;;;;;;;;;;;;;;5015778;28;19929;-80
2023/04/19 13:47:50;;;;;;;;;;;;;;;;;;5017890;28;19956;-80
2023/04/19 13:50:18;;;;;;;;;;;;;;;;;;5035097;28;19925;-80
2023/04/19 13:52:45;;;;;;;;;;;;;;;;;;5035595;28;19952;-80
2023/04/19 13:55:12;;;;;;;;;;;;;;;;;;5034139;28;19925;-80
2023/04/19 13:57:39;;;;;;;;;;;;;;;;;;5034521;28;19925;-80
2023/04/19 14:00:07;;;;;;;;;;;;;;;;;;5034690;28;20395;-80
2023/04/19 14:02:34;;;;;;;;;;;;;;;;;;5009597;28;19925;-80
2023/04/19 14:05:01;;;;;;;;;;;;;;;;;;5034735;28;20302;-80
2023/04/19 14:07:32;;;;;;;;;;;;;;;;;;5088533;23;19935;-88
2023/04/19 14:09:59;;;;;;;;;;;;;;;;;;5115866;28;19928;-88
2023/04/19 14:12:27;;;;;;;;;;;;;;;;;;5076710;28;19948;-88
2023/04/19 14:14:55;;;;;;;;;;;;;;;;;;5060683;28;20313;-88
2023/04/19 14:17:24;;;;;;;;;;;;;;;;;;5099897;28;19924;-88
2023/04/19 14:19:53;;;;;;;;;;;;;;;;;;5088629;28;19931;-88
2023/04/19 14:22:21;;;;;;;;;;;;;;;;;;5091020;28;19924;-87
2023/04/19 14:24:49;;;;;;;;;;;;;;;;;;5083319;28;19925;-87
2023/04/19 14:27:18;;;;;;;;;;;;;;;;;;5045848;28;19931;-87
2023/04/19 14:29:45;;;;;;;;;;;;;;;;;;5065343;28;19924;-86
2023/04/19 14:32:12;;;;;;;;;;;;;;;;;;5047781;28;19925;-87
2023/04/19 14:34:39;;;;;;;;;;;;;;;;;;5082350;28;19924;-86
2023/04/19 14:37:06;;;;;;;;;;;;;;;;;;5075447;28;19925;-88
2023/04/19 14:39:33;;;;;;;;;;;;;;;;;;5084130;28;19931;-88
2023/04/19 14:42:02;;;;;;;;;;;;;;;;;;5083097;28;19947;-86
2023/04/19 14:44:30;;;;;;;;;;;;;;;;;;5048300;28;19924;-86
2023/04/19 14:46:57;;;;;;;;;;;;;;;;;;5061983;28;19932;-86
2023/04/19 14:49:24;;;;;;;;;;;;;;;;;;5054816;28;20178;-87
2023/04/19 14:51:54;;;;;;;;;;;;;;;;;;5087304;28;19924;-87
2023/04/19 14:54:21;;;;;;;;;;;;;;;;;;5064353;28;19924;-87
2023/04/19 14:56:48;;;;;;;;;;;;;;;;;;5074344;28;19924;-87
2023/04/19 14:59:16;;;;;;;;;;;;;;;;;;5063501;28;20401;-86
2023/04/19 15:01:43;;;;;;;;;;;;;;;;;;5084673;28;20408;-87
2023/04/19 15:04:12;;;;;;;;;;;;;;;;;;5082759;28;19932;-88
2023/04/19 15:06:40;;;;;;;;;;;;;;;;;;5063363;28;19954;-86
2023/04/19 15:09:07;;;;;;;;;;;;;;;;;;5076891;28;19928;-87
2023/04/19 15:11:34;;;;;;;;;;;;;;;;;;5064359;28;19925;-87
2023/04/19 15:14:01;;;;;;;;;;;;;;;;;;5078467;28;19931;-87
2023/04/19 15:16:30;;;;;;;;;;;;;;;;;;5064042;28;20318;-86
2023/04/19 15:19:00;;;;;;;;;;;;;;;;;;5047952;28;19924;-87
2023/04/19 15:21:28;;;;;;;;;;;;;;;;;;5070635;28;19932;-87
2023/04/19 15:23:55;;;;;;;;;;;;;;;;;;5088069;28;19931;-87
2023/04/19 15:26:24;;;;;;;;;;;;;;;;;;5063994;28;19924;-87
2023/04/19 15:28:51;;;;;;;;;;;;;;;;;;5077947;28;19924;-86
2023/04/19 15:31:21;;;;;;;;;;;;;;;;;;5089502;28;19928;-86
2023/04/19 15:33:49;;;;;;;;;;;;;;;;;;5094325;28;19924;-86
2023/04/19 15:36:16;;;;;;;;;;;;;;;;;;5075797;28;19931;-87
2023/04/19 15:38:43;;;;;;;;;;;;;;;;;;5072918;28;19924;-87
2023/04/19 15:41:12;;;;;;;;;;;;;;;;;;5083216;28;20399;-87
2023/04/19 15:43:39;;;;;;;;;;;;;;;;;;5093825;28;19932;-87
2023/04/19 15:46:06;;;;;;;;;;;;;;;;;;5092742;28;19924;-87
2023/04/19 15:48:33;;;;;;;;;;;;;;;;;;5063764;28;20378;-87
2023/04/19 15:51:04;;;;;;;;;;;;;;;;;;5056288;28;19924;-86
2023/04/19 15:53:31;;;;;;;;;;;;;;;;;;5088650;28;19932;-88
2023/04/19 15:55:58;;;;;;;;;;;;;;;;;;5060824;28;19928;-86
2023/04/19 15:58:27;;;;;;;;;;;;;;;;;;5069736;28;19925;-87
2023/04/19 16:00:54;;;;;;;;;;;;;;;;;;5072208;28;19924;-87
2023/04/19 16:03:21;;;;;;;;;;;;;;;;;;5047541;28;19931;-87
2023/04/19 16:05:51;;;;;;;;;;;;;;;;;;5082454;28;19928;-87
2023/04/19 16:08:19;;;;;;;;;;;;;;;;;;5056606;28;19924;-86
2023/04/19 16:10:46;;;;;;;;;;;;;;;;;;5063502;28;20373;-87
2023/04/19 16:13:15;;;;;;;;;;;;;;;;;;5080771;28;20385;-87
2023/04/19 16:15:42;;;;;;;;;;;;;;;;;;5069645;28;19924;-86
2023/04/19 16:18:11;;;;;;;;;;;;;;;;;;5066817;28;19931;-87
2023/04/19 16:20:38;;;;;;;;;;;;;;;;;;5091471;28;19931;-86
2023/04/19 16:23:05;;;;;;;;;;;;;;;;;;5071863;28;19935;-86
2023/04/19 16:25:33;;;;;;;;;;;;;;;;;;5087733;28;19924;-86
2023/04/19 16:28:00;;;;;;;;;;;;;;;;;;5061105;28;19932;-86
2023/04/19 16:30:28;;;;;;;;;;;;;;;;;;5083163;28;19943;-89
2023/04/19 16:32:57;;;;;;;;;;;;;;;;;;5086756;28;19924;-87
2023/04/19 16:35:25;;;;;;;;;;;;;;;;;;5087645;28;19931;-86
2023/04/19 16:37:56;;;;;;;;;;;;;;;;;;5067481;28;19924;-87
2023/04/19 16:40:23;;;;;;;;;;;;;;;;;;5073438;28;20385;-87
2023/04/19 16:42:51;;;;;;;;;;;;;;;;;;5083393;28;19930;-86
2023/04/19 16:45:18;;;;;;;;;;;;;;;;;;5067896;28;19924;-88
2023/04/19 16:47:48;;;;;;;;;;;;;;;;;;5081460;28;19925;-88
2023/04/19 16:50:15;;;;;;;;;;;;;;;;;;5064789;28;19924;-89
2023/04/19 16:52:42;;;;;;;;;;;;;;;;;;5063374;28;19928;-89
2023/04/19 16:55:09;;;;;;;;;;;;;;;;;;5067078;28;19928;-87
2023/04/19 16:57:36;;;;;;;;;;;;;;;;;;5080494;28;20164;-89
2023/04/19 17:00:08;;;;;;;;;;;;;;;;;;5044800;28;19924;-85
2023/04/19 17:02:37;;;;;;;;;;;;;;;;;;5063065;28;19925;-90
2023/04/19 17:05:05;;;;;;;;;;;;;;;;;;5079756;28;19931;-89
2023/04/19 17:07:35;;;;;;;;;;;;;;;;;;5083173;28;19991;-89
2023/04/19 17:10:02;;;;;;;;;;;;;;;;;;5054922;28;19924;-90
2023/04/19 17:12:29;;;;;;;;;;;;;;;;;;5087084;28;19931;-89
2023/04/19 17:14:56;;;;;;;;;;;;;;;;;;5082365;28;19939;-89
2023/04/19 17:17:24;;;;;;;;;;;;;;;;;;5056425;28;20049;-90
2023/04/19 17:19:52;;;;;;;;;;;;;;;;;;5061344;28;19952;-90
2023/04/19 17:22:22;;;;;;;;;;;;;;;;;;5088616;28;19924;-90
2023/04/19 17:24:49;;;;;;;;;;;;;;;;;;5064706;28;19946;-90
2023/04/19 17:27:16;;;;;;;;;;;;;;;;;;5063323;28;19924;-89
2023/04/19 17:29:47;;;;;;;;;;;;;;;;;;5080309;28;19924;-90
2023/04/19 17:32:15;;;;;;;;;;;;;;;;;;5067369;28;19947;-90
2023/04/19 17:34:43;;;;;;;;;;;;;;;;;;5062406;28;20430;-89
2023/04/19 17:37:10;;;;;;;;;;;;;;;;;;5086092;28;20476;-89